DRK219 VNKT-VQPR
Flight info
| Callsign | DRK219 |
|---|---|
| Flight time | 0h 47m |
| Altitude | 37000 |
| Route | IGRIS1C KIMTI G348 SUBSU DCT TAKTI DCT PRO |
| Aircraft | A20N/M-SDE2E3FGHIRWXY/LB1 |
Departure
| Time | 2026-04-30 04:31 |
|---|---|
| Airport | Tribhuvan International Airport (VNKT) |
Arrival
| Time | 2026-04-30 05:18 |
|---|---|
| Airport | Paro International Airport (VQPR) |
| Time | Latitude | Longitude | Altitude | Speed | Heading |
|---|---|---|---|---|---|
| 2026-04-30 04:12 | 27.70036 | 85.35849 | 4372 ft | 0 kts | 291° |
| 2026-04-30 04:22 | 27.70035 | 85.35854 | 4372 ft | 2 kts | 290° |
| 2026-04-30 04:22 | 27.70029 | 85.35872 | 4359 ft | 2 kts | 291° |
| 2026-04-30 04:22 | 27.70023 | 85.35889 | 4356 ft | 2 kts | 291° |
| 2026-04-30 04:23 | 27.70017 | 85.35905 | 4372 ft | 2 kts | 290° |
| 2026-04-30 04:23 | 27.70012 | 85.35923 | 4357 ft | 2 kts | 288° |
| 2026-04-30 04:23 | 27.70007 | 85.35941 | 4356 ft | 2 kts | 275° |
| 2026-04-30 04:23 | 27.70011 | 85.35956 | 4353 ft | 1 kts | 204° |
| 2026-04-30 04:24 | 27.70013 | 85.35958 | 4355 ft | 0 kts | 202° |
| 2026-04-30 04:24 | 27.70012 | 85.35957 | 4353 ft | 1 kts | 202° |
| 2026-04-30 04:25 | 27.69981 | 85.35942 | 4371 ft | 8 kts | 202° |
| 2026-04-30 04:25 | 27.69914 | 85.35912 | 4369 ft | 12 kts | 202° |
| 2026-04-30 04:25 | 27.69826 | 85.35871 | 4364 ft | 16 kts | 202° |
| 2026-04-30 04:25 | 27.69716 | 85.35821 | 4360 ft | 19 kts | 202° |
| 2026-04-30 04:26 | 27.69590 | 85.35764 | 4352 ft | 20 kts | 202° |
| 2026-04-30 04:26 | 27.69463 | 85.35705 | 4353 ft | 20 kts | 202° |
| 2026-04-30 04:26 | 27.69408 | 85.35680 | 4342 ft | 17 kts | 202° |
| 2026-04-30 04:26 | 27.69350 | 85.35653 | 4348 ft | 17 kts | 202° |
| 2026-04-30 04:27 | 27.69226 | 85.35596 | 4342 ft | 19 kts | 201° |
| 2026-04-30 04:27 | 27.69129 | 85.35554 | 4344 ft | 9 kts | 201° |
| 2026-04-30 04:27 | 27.69093 | 85.35554 | 4339 ft | 0 kts | 161° |
| 2026-04-30 04:28 | 27.69086 | 85.35564 | 4342 ft | 5 kts | 135° |
| 2026-04-30 04:28 | 27.69046 | 85.35618 | 4341 ft | 13 kts | 151° |
| 2026-04-30 04:28 | 27.68950 | 85.35591 | 4338 ft | 17 kts | 202° |
| 2026-04-30 04:28 | 27.68813 | 85.35528 | 4334 ft | 26 kts | 202° |
| 2026-04-30 04:29 | 27.68657 | 85.35457 | 4326 ft | 22 kts | 201° |
| 2026-04-30 04:29 | 27.68508 | 85.35392 | 4325 ft | 17 kts | 201° |
| 2026-04-30 04:29 | 27.68455 | 85.35331 | 4319 ft | 11 kts | 227° |
| 2026-04-30 04:29 | 27.68401 | 85.35349 | 4322 ft | 2 kts | 88° |
| 2026-04-30 04:30 | 27.68411 | 85.35352 | 4322 ft | 3 kts | 17° |
| 2026-04-30 04:30 | 27.68493 | 85.35385 | 4325 ft | 36 kts | 22° |
| 2026-04-30 04:30 | 27.68954 | 85.35594 | 4339 ft | 103 kts | 21° |
| 2026-04-30 04:30 | 27.69796 | 85.35974 | 4359 ft | 155 kts | 22° |
| 2026-04-30 04:31 | 27.70860 | 85.36463 | 4724 ft | 173 kts | 22° |
| 2026-04-30 04:31 | 27.72044 | 85.37007 | 5153 ft | 192 kts | 22° |
| 2026-04-30 04:31 | 27.73172 | 85.37749 | 5956 ft | 186 kts | 47° |
| 2026-04-30 04:31 | 27.73691 | 85.38532 | 6496 ft | 187 kts | 63° |
| 2026-04-30 04:32 | 27.74089 | 85.39862 | 6901 ft | 203 kts | 83° |
| 2026-04-30 04:32 | 27.74089 | 85.41538 | 7253 ft | 225 kts | 93° |
| 2026-04-30 04:32 | 27.73965 | 85.43399 | 7599 ft | 247 kts | 104° |
| 2026-04-30 04:32 | 27.73276 | 85.45172 | 8357 ft | 249 kts | 127° |
| 2026-04-30 04:33 | 27.72021 | 85.46502 | 9173 ft | 249 kts | 151° |
| 2026-04-30 04:33 | 27.70395 | 85.47152 | 9983 ft | 250 kts | 175° |
| 2026-04-30 04:33 | 27.68645 | 85.47047 | 10606 ft | 259 kts | 193° |
| 2026-04-30 04:33 | 27.66931 | 85.46327 | 11233 ft | 266 kts | 211° |
| 2026-04-30 04:34 | 27.65468 | 85.45054 | 12048 ft | 267 kts | 227° |
| 2026-04-30 04:34 | 27.64394 | 85.43347 | 12807 ft | 269 kts | 244° |
| 2026-04-30 04:34 | 27.63823 | 85.41333 | 13610 ft | 271 kts | 262° |
| 2026-04-30 04:34 | 27.63756 | 85.39201 | 14305 ft | 275 kts | 270° |
| 2026-04-30 04:35 | 27.63768 | 85.37041 | 15020 ft | 276 kts | 270° |
| 2026-04-30 04:35 | 27.63772 | 85.34893 | 15712 ft | 278 kts | 271° |
| 2026-04-30 04:35 | 27.64077 | 85.32735 | 16397 ft | 281 kts | 287° |
| 2026-04-30 04:35 | 27.64948 | 85.30741 | 17041 ft | 287 kts | 304° |
| 2026-04-30 04:36 | 27.66331 | 85.29101 | 17679 ft | 293 kts | 320° |
| 2026-04-30 04:36 | 27.68138 | 85.27975 | 18319 ft | 301 kts | 338° |
| 2026-04-30 04:36 | 27.70212 | 85.27519 | 18854 ft | 310 kts | 355° |
| 2026-04-30 04:36 | 27.72379 | 85.27837 | 19361 ft | 320 kts | 15° |
| 2026-04-30 04:37 | 27.74389 | 85.28966 | 19865 ft | 328 kts | 35° |
| 2026-04-30 04:37 | 27.75986 | 85.30831 | 20355 ft | 336 kts | 56° |
| 2026-04-30 04:37 | 27.76933 | 85.33217 | 20850 ft | 341 kts | 77° |
| 2026-04-30 04:37 | 27.77101 | 85.35880 | 21345 ft | 343 kts | 99° |
| 2026-04-30 04:38 | 27.76438 | 85.38445 | 21850 ft | 342 kts | 120° |
| 2026-04-30 04:38 | 27.75033 | 85.40585 | 22356 ft | 339 kts | 141° |
| 2026-04-30 04:38 | 27.73475 | 85.41970 | 22699 ft | 342 kts | 147° |
| 2026-04-30 04:38 | 27.71444 | 85.43652 | 22844 ft | 358 kts | 147° |
| 2026-04-30 04:39 | 27.69388 | 85.45351 | 22993 ft | 373 kts | 147° |
| 2026-04-30 04:39 | 27.67284 | 85.47178 | 23129 ft | 390 kts | 141° |
| 2026-04-30 04:39 | 27.65383 | 85.49449 | 23278 ft | 407 kts | 130° |
| 2026-04-30 04:39 | 27.63823 | 85.52187 | 23412 ft | 424 kts | 119° |
| 2026-04-30 04:40 | 27.62707 | 85.55319 | 23630 ft | 436 kts | 108° |
| 2026-04-30 04:40 | 27.61859 | 85.58616 | 24074 ft | 439 kts | 108° |
| 2026-04-30 04:40 | 27.60974 | 85.61919 | 24483 ft | 442 kts | 109° |
| 2026-04-30 04:40 | 27.60076 | 85.65238 | 24925 ft | 444 kts | 109° |
| 2026-04-30 04:41 | 27.59162 | 85.68563 | 25384 ft | 445 kts | 111° |
| 2026-04-30 04:41 | 27.57936 | 85.71765 | 25780 ft | 446 kts | 118° |
| 2026-04-30 04:41 | 27.56549 | 85.74902 | 26215 ft | 448 kts | 118° |
| 2026-04-30 04:41 | 27.55154 | 85.78052 | 26616 ft | 451 kts | 118° |
| 2026-04-30 04:42 | 27.53749 | 85.81230 | 27016 ft | 454 kts | 118° |
| 2026-04-30 04:42 | 27.52404 | 85.84412 | 27390 ft | 458 kts | 114° |
| 2026-04-30 04:42 | 27.51445 | 85.87858 | 27761 ft | 464 kts | 104° |
| 2026-04-30 04:42 | 27.50998 | 85.91478 | 28211 ft | 468 kts | 94° |
| 2026-04-30 04:43 | 27.50875 | 85.95149 | 28600 ft | 471 kts | 94° |
| 2026-04-30 04:43 | 27.50740 | 85.98848 | 28931 ft | 474 kts | 94° |
| 2026-04-30 04:43 | 27.50598 | 86.02568 | 29300 ft | 476 kts | 94° |
| 2026-04-30 04:43 | 27.50455 | 86.06303 | 29633 ft | 479 kts | 94° |
| 2026-04-30 04:44 | 27.50311 | 86.10058 | 29970 ft | 482 kts | 94° |
| 2026-04-30 04:44 | 27.50167 | 86.13837 | 30278 ft | 484 kts | 94° |
| 2026-04-30 04:44 | 27.50021 | 86.17645 | 30535 ft | 487 kts | 94° |
| 2026-04-30 04:44 | 27.49879 | 86.21423 | 30794 ft | 488 kts | 95° |
| 2026-04-30 04:45 | 27.49714 | 86.25254 | 31134 ft | 489 kts | 98° |
| 2026-04-30 04:45 | 27.49250 | 86.29038 | 31472 ft | 486 kts | 105° |
| 2026-04-30 04:45 | 27.48529 | 86.32762 | 31865 ft | 484 kts | 106° |
| 2026-04-30 04:45 | 27.47816 | 86.36465 | 32267 ft | 483 kts | 106° |
| 2026-04-30 04:46 | 27.47110 | 86.40159 | 32668 ft | 481 kts | 106° |
| 2026-04-30 04:46 | 27.46414 | 86.43795 | 32992 ft | 481 kts | 106° |
| 2026-04-30 04:46 | 27.45707 | 86.47477 | 33356 ft | 480 kts | 106° |
| 2026-04-30 04:46 | 27.45162 | 86.50313 | 33660 ft | 479 kts | 106° |
| 2026-04-30 04:47 | 27.44455 | 86.53983 | 34032 ft | 478 kts | 107° |
| 2026-04-30 04:47 | 27.43749 | 86.57641 | 34292 ft | 477 kts | 107° |
| 2026-04-30 04:47 | 27.43043 | 86.61288 | 34564 ft | 476 kts | 107° |
| 2026-04-30 04:47 | 27.42337 | 86.64930 | 34811 ft | 476 kts | 106° |
| 2026-04-30 04:48 | 27.41643 | 86.68509 | 35118 ft | 473 kts | 106° |
| 2026-04-30 04:48 | 27.40939 | 86.72141 | 35284 ft | 475 kts | 107° |
| 2026-04-30 04:48 | 27.40234 | 86.75766 | 35538 ft | 474 kts | 107° |
| 2026-04-30 04:48 | 27.39529 | 86.79389 | 35761 ft | 474 kts | 107° |
| 2026-04-30 04:49 | 27.38820 | 86.83024 | 36020 ft | 474 kts | 107° |
| 2026-04-30 04:49 | 27.38115 | 86.86635 | 36284 ft | 473 kts | 107° |
| 2026-04-30 04:49 | 27.37407 | 86.90259 | 36537 ft | 473 kts | 107° |
| 2026-04-30 04:49 | 27.36701 | 86.93861 | 36789 ft | 472 kts | 107° |
| 2026-04-30 04:50 | 27.35994 | 86.97473 | 36923 ft | 473 kts | 107° |
| 2026-04-30 04:50 | 27.35283 | 87.01087 | 37047 ft | 473 kts | 107° |
| 2026-04-30 04:50 | 27.34811 | 87.03482 | 37067 ft | 472 kts | 107° |
| 2026-04-30 04:51 | 27.33166 | 87.11823 | 37060 ft | 470 kts | 107° |
| 2026-04-30 04:51 | 27.31707 | 87.17721 | 37058 ft | 467 kts | 115° |
| 2026-04-30 04:52 | 27.28466 | 87.25320 | 37049 ft | 459 kts | 127° |
| 2026-04-30 04:52 | 27.25650 | 87.30393 | 37037 ft | 459 kts | 126° |
| 2026-04-30 04:53 | 27.22297 | 87.36484 | 37038 ft | 458 kts | 126° |
| 2026-04-30 04:53 | 27.18946 | 87.42560 | 37027 ft | 460 kts | 127° |
| 2026-04-30 04:54 | 27.15577 | 87.48656 | 37020 ft | 458 kts | 126° |
| 2026-04-30 04:54 | 27.12199 | 87.54759 | 37006 ft | 460 kts | 126° |
| 2026-04-30 04:55 | 27.08815 | 87.60864 | 37012 ft | 461 kts | 126° |
| 2026-04-30 04:55 | 27.05447 | 87.66932 | 37004 ft | 461 kts | 126° |
| 2026-04-30 04:56 | 27.02056 | 87.73034 | 36999 ft | 461 kts | 126° |
| 2026-04-30 04:56 | 26.98656 | 87.79143 | 36993 ft | 461 kts | 126° |
| 2026-04-30 04:57 | 26.95256 | 87.85243 | 36986 ft | 461 kts | 126° |
| 2026-04-30 04:57 | 26.91861 | 87.91330 | 36970 ft | 460 kts | 126° |
| 2026-04-30 04:58 | 26.88455 | 87.97421 | 36972 ft | 461 kts | 126° |
| 2026-04-30 04:58 | 26.85056 | 88.03494 | 36964 ft | 462 kts | 126° |
| 2026-04-30 04:59 | 26.81632 | 88.09604 | 36962 ft | 463 kts | 126° |
| 2026-04-30 04:59 | 26.78213 | 88.15698 | 36456 ft | 462 kts | 126° |
| 2026-04-30 04:59 | 26.76492 | 88.18759 | 35715 ft | 466 kts | 126° |
| 2026-04-30 05:00 | 26.74781 | 88.21826 | 34777 ft | 474 kts | 125° |
| 2026-04-30 05:00 | 26.73049 | 88.25065 | 33686 ft | 486 kts | 120° |
| 2026-04-30 05:00 | 26.71803 | 88.28572 | 32602 ft | 496 kts | 108° |
| 2026-04-30 05:00 | 26.71166 | 88.32390 | 31591 ft | 505 kts | 96° |
| 2026-04-30 05:01 | 26.71196 | 88.36330 | 30684 ft | 510 kts | 85° |
| 2026-04-30 05:01 | 26.71890 | 88.40233 | 29686 ft | 515 kts | 73° |
| 2026-04-30 05:01 | 26.73253 | 88.43912 | 28962 ft | 510 kts | 62° |
| 2026-04-30 05:01 | 26.75202 | 88.47184 | 28524 ft | 499 kts | 50° |
| 2026-04-30 05:02 | 26.77436 | 88.50130 | 27940 ft | 492 kts | 49° |
| 2026-04-30 05:02 | 26.79582 | 88.53086 | 27362 ft | 487 kts | 52° |
| 2026-04-30 05:02 | 26.81558 | 88.56134 | 26765 ft | 481 kts | 55° |
| 2026-04-30 05:02 | 26.83395 | 88.59241 | 26171 ft | 476 kts | 57° |
| 2026-04-30 05:03 | 26.85149 | 88.62369 | 25576 ft | 472 kts | 58° |
| 2026-04-30 05:03 | 26.86861 | 88.65499 | 25015 ft | 467 kts | 58° |
| 2026-04-30 05:03 | 26.88526 | 88.68564 | 24437 ft | 463 kts | 58° |
| 2026-04-30 05:03 | 26.90194 | 88.71639 | 23859 ft | 460 kts | 58° |
| 2026-04-30 05:04 | 26.91846 | 88.74682 | 23240 ft | 456 kts | 58° |
| 2026-04-30 05:04 | 26.93469 | 88.77669 | 22699 ft | 442 kts | 58° |
| 2026-04-30 05:04 | 26.95045 | 88.80568 | 22158 ft | 429 kts | 58° |
| 2026-04-30 05:04 | 26.96574 | 88.83419 | 21613 ft | 425 kts | 60° |
| 2026-04-30 05:05 | 26.97783 | 88.86441 | 21083 ft | 421 kts | 70° |
| 2026-04-30 05:05 | 26.98526 | 88.89608 | 20545 ft | 418 kts | 80° |
| 2026-04-30 05:05 | 26.98888 | 88.92832 | 19951 ft | 416 kts | 83° |
| 2026-04-30 05:06 | 26.99552 | 88.99192 | 18943 ft | 407 kts | 83° |
| 2026-04-30 05:06 | 26.99883 | 89.02332 | 18426 ft | 405 kts | 83° |
| 2026-04-30 05:06 | 27.00145 | 89.04813 | 18011 ft | 401 kts | 83° |
| 2026-04-30 05:06 | 27.00471 | 89.07908 | 17460 ft | 398 kts | 83° |
| 2026-04-30 05:07 | 27.00793 | 89.10966 | 16744 ft | 399 kts | 83° |
| 2026-04-30 05:07 | 27.01113 | 89.14026 | 16392 ft | 389 kts | 84° |
| 2026-04-30 05:07 | 27.01427 | 89.17031 | 15811 ft | 388 kts | 84° |
| 2026-04-30 05:07 | 27.01740 | 89.20030 | 15291 ft | 385 kts | 84° |
| 2026-04-30 05:08 | 27.01959 | 89.22134 | 14937 ft | 382 kts | 84° |
| 2026-04-30 05:08 | 27.02265 | 89.25088 | 14418 ft | 380 kts | 84° |
| 2026-04-30 05:08 | 27.02565 | 89.27978 | 13976 ft | 375 kts | 84° |
| 2026-04-30 05:08 | 27.02834 | 89.30586 | 13511 ft | 371 kts | 84° |
| 2026-04-30 05:09 | 27.03128 | 89.33447 | 13051 ft | 366 kts | 85° |
| 2026-04-30 05:09 | 27.03417 | 89.36272 | 12581 ft | 362 kts | 85° |
| 2026-04-30 05:09 | 27.03702 | 89.39049 | 12264 ft | 353 kts | 84° |
| 2026-04-30 05:09 | 27.03977 | 89.41729 | 12406 ft | 336 kts | 85° |
| 2026-04-30 05:10 | 27.04237 | 89.44261 | 12706 ft | 318 kts | 85° |
| 2026-04-30 05:10 | 27.04488 | 89.46666 | 12786 ft | 306 kts | 82° |
| 2026-04-30 05:10 | 27.05193 | 89.48925 | 12807 ft | 312 kts | 59° |
| 2026-04-30 05:10 | 27.06629 | 89.50727 | 12814 ft | 306 kts | 40° |
| 2026-04-30 05:11 | 27.08375 | 89.51969 | 12864 ft | 290 kts | 26° |
| 2026-04-30 05:11 | 27.10246 | 89.52686 | 12665 ft | 278 kts | 13° |
| 2026-04-30 05:11 | 27.12114 | 89.53059 | 12439 ft | 270 kts | 7° |
| 2026-04-30 05:11 | 27.13956 | 89.53171 | 12228 ft | 260 kts | 358° |
| 2026-04-30 05:12 | 27.15685 | 89.52968 | 12166 ft | 239 kts | 348° |
| 2026-04-30 05:12 | 27.16638 | 89.52698 | 12142 ft | 226 kts | 342° |
| 2026-04-30 05:12 | 27.18055 | 89.52129 | 12070 ft | 207 kts | 342° |
| 2026-04-30 05:12 | 27.19447 | 89.51794 | 11704 ft | 205 kts | 354° |
| 2026-04-30 05:13 | 27.20854 | 89.51781 | 11229 ft | 201 kts | 6° |
| 2026-04-30 05:13 | 27.22222 | 89.51995 | 10674 ft | 203 kts | 8° |
| 2026-04-30 05:13 | 27.23596 | 89.52134 | 10461 ft | 184 kts | 2° |
| 2026-04-30 05:13 | 27.24857 | 89.52182 | 10425 ft | 190 kts | 2° |
| 2026-04-30 05:14 | 27.26204 | 89.52247 | 10320 ft | 194 kts | 3° |
| 2026-04-30 05:14 | 27.27530 | 89.52378 | 10354 ft | 189 kts | 8° |
| 2026-04-30 05:14 | 27.28819 | 89.52750 | 10519 ft | 194 kts | 22° |
| 2026-04-30 05:14 | 27.30027 | 89.53412 | 10559 ft | 193 kts | 24° |
| 2026-04-30 05:15 | 27.31340 | 89.53515 | 10714 ft | 192 kts | 343° |
| 2026-04-30 05:15 | 27.32438 | 89.52674 | 10794 ft | 195 kts | 307° |
| 2026-04-30 05:15 | 27.32839 | 89.51336 | 10607 ft | 172 kts | 265° |
| 2026-04-30 05:15 | 27.32620 | 89.50066 | 10363 ft | 164 kts | 259° |
| 2026-04-30 05:16 | 27.32640 | 89.48800 | 9869 ft | 169 kts | 288° |
| 2026-04-30 05:16 | 27.33328 | 89.47753 | 9292 ft | 171 kts | 325° |
| 2026-04-30 05:16 | 27.34338 | 89.47103 | 8905 ft | 163 kts | 334° |
| 2026-04-30 05:16 | 27.35387 | 89.46646 | 8774 ft | 162 kts | 340° |
| 2026-04-30 05:17 | 27.36447 | 89.46175 | 8644 ft | 166 kts | 334° |
| 2026-04-30 05:17 | 27.37388 | 89.45469 | 8429 ft | 160 kts | 315° |
| 2026-04-30 05:17 | 27.37993 | 89.44449 | 8059 ft | 157 kts | 295° |
| 2026-04-30 05:17 | 27.38655 | 89.43503 | 7650 ft | 156 kts | 328° |
| 2026-04-30 05:18 | 27.39571 | 89.42946 | 7335 ft | 155 kts | 329° |
| 2026-04-30 05:18 | 27.40303 | 89.42484 | 7340 ft | 90 kts | 332° |
| 2026-04-30 05:18 | 27.40613 | 89.42288 | 7353 ft | 20 kts | 331° |
| 2026-04-30 05:18 | 27.40661 | 89.42256 | 7356 ft | 7 kts | 322° |
| 2026-04-30 05:19 | 27.40680 | 89.42218 | 7357 ft | 5 kts | 280° |
| 2026-04-30 05:19 | 27.40670 | 89.42177 | 7356 ft | 6 kts | 236° |
| 2026-04-30 05:19 | 27.40633 | 89.42172 | 7355 ft | 6 kts | 154° |
| 2026-04-30 05:19 | 27.40594 | 89.42194 | 7354 ft | 7 kts | 152° |
| 2026-04-30 05:20 | 27.40560 | 89.42204 | 7353 ft | 3 kts | 202° |
| 2026-04-30 05:20 | 27.40546 | 89.42183 | 7353 ft | 3 kts | 238° |
| 2026-04-30 05:20 | 27.40538 | 89.42167 | 7354 ft | 2 kts | 239° |
| 2026-04-30 05:20 | 27.40536 | 89.42165 | 7354 ft | 1 kts | 239° |
| 2026-04-30 05:21 | 27.40536 | 89.42164 | 7354 ft | 0 kts | 239° |